createdAt,value
2022-11-22T00:00:56.705Z,2.23
2022-11-22T00:03:24.653Z,2.31
2022-11-22T00:05:52.444Z,2.40
2022-11-22T00:08:20.315Z,2.33
2022-11-22T00:10:51.503Z,2.33
2022-11-22T00:13:20.005Z,2.19
2022-11-22T00:15:58.910Z,2.13
2022-11-22T00:18:27.781Z,2.19
2022-11-22T00:20:56.232Z,2.12
2022-11-22T00:23:24.173Z,1.93
2022-11-22T00:25:51.987Z,1.84
2022-11-22T00:28:19.756Z,1.97
2022-11-22T00:30:47.502Z,1.96
2022-11-22T00:33:15.269Z,1.92
2022-11-22T00:35:45.370Z,1.88
2022-11-22T00:38:13.120Z,1.75
2022-11-22T00:40:40.947Z,1.73
2022-11-22T00:43:08.824Z,1.68
2022-11-22T00:45:36.638Z,1.98
2022-11-22T00:48:04.804Z,1.88
2022-11-22T00:50:32.571Z,1.79
2022-11-22T00:53:00.252Z,1.56
2022-11-22T00:55:28.106Z,1.63
2022-11-22T00:57:56.149Z,1.72
2022-11-22T01:00:24.147Z,1.91
2022-11-22T01:02:52.004Z,1.92
2022-11-22T01:05:20.671Z,2.00
2022-11-22T01:07:48.762Z,2.03
2022-11-22T01:10:16.917Z,1.96
2022-11-22T01:12:45.262Z,1.88
2022-11-22T01:15:13.082Z,1.86
2022-11-22T01:17:41.041Z,1.94
2022-11-22T01:20:09.638Z,1.88
2022-11-22T01:22:37.447Z,2.10
2022-11-22T01:25:05.807Z,2.17
2022-11-22T01:27:33.943Z,2.18
2022-11-22T01:30:01.823Z,2.18
2022-11-22T01:32:29.722Z,2.29
2022-11-22T01:35:00.141Z,2.33
2022-11-22T01:37:28.074Z,2.30
2022-11-22T01:39:55.999Z,2.23
2022-11-22T01:42:23.801Z,2.15
2022-11-22T01:44:53.813Z,2.13
2022-11-22T01:47:25.266Z,2.12
2022-11-22T01:50:00.162Z,1.96
2022-11-22T01:52:32.308Z,1.85
2022-11-22T01:55:09.422Z,1.74
2022-11-22T01:57:39.383Z,1.70
2022-11-22T02:00:10.889Z,1.70
2022-11-22T02:02:51.568Z,1.78
2022-11-22T02:05:22.845Z,1.91
2022-11-22T02:07:59.059Z,1.85
2022-11-22T02:10:29.961Z,1.88
2022-11-22T02:12:59.863Z,1.84
2022-11-22T02:15:27.749Z,1.83
2022-11-22T02:17:58.443Z,1.92
2022-11-22T02:20:26.610Z,2.00
2022-11-22T02:23:14.429Z,1.95
2022-11-22T02:25:42.279Z,1.94
2022-11-22T02:28:13.518Z,1.88
2022-11-22T02:30:41.663Z,1.82
2022-11-22T02:33:09.629Z,1.89
2022-11-22T02:35:37.720Z,1.90
2022-11-22T02:38:13.011Z,1.90
2022-11-22T02:40:46.739Z,1.80
2022-11-22T02:43:18.786Z,1.75
2022-11-22T02:45:46.838Z,1.84
2022-11-22T02:48:17.222Z,1.73
2022-11-22T02:50:45.937Z,1.70
2022-11-22T02:53:14.230Z,1.73
2022-11-22T02:55:42.100Z,1.79
2022-11-22T02:58:10.008Z,1.83
2022-11-22T03:00:39.363Z,1.90
2022-11-22T03:03:07.486Z,1.96
2022-11-22T03:05:35.273Z,2.09
2022-11-22T03:08:03.193Z,2.11
2022-11-22T03:10:31.683Z,2.09
2022-11-22T03:12:59.733Z,2.08
2022-11-22T03:15:27.592Z,1.99
2022-11-22T03:18:00.147Z,1.93
2022-11-22T03:20:28.844Z,1.87
2022-11-22T03:22:57.041Z,1.89
2022-11-22T03:25:26.123Z,2.01
2022-11-22T03:27:54.447Z,2.00
2022-11-22T03:30:22.298Z,1.98
2022-11-22T03:32:50.185Z,1.96
2022-11-22T03:35:18.081Z,2.03
2022-11-22T03:37:45.887Z,2.03
2022-11-22T03:40:13.886Z,2.05
2022-11-22T03:42:42.087Z,2.00
2022-11-22T03:45:10.597Z,2.06
2022-11-22T03:47:38.441Z,1.95
2022-11-22T03:50:06.639Z,1.84
2022-11-22T03:52:34.819Z,1.92
2022-11-22T03:55:02.967Z,1.99
2022-11-22T03:57:31.229Z,2.01
2022-11-22T03:59:59.384Z,1.98
2022-11-22T04:02:27.498Z,1.81
2022-11-22T04:04:55.308Z,1.90
2022-11-22T04:07:23.516Z,1.75
2022-11-22T04:09:51.548Z,1.72
2022-11-22T04:12:19.267Z,1.75
2022-11-22T04:15:19.846Z,1.89
2022-11-22T04:17:48.527Z,2.02
2022-11-22T04:20:41.746Z,2.14
2022-11-22T04:23:14.078Z,1.81
2022-11-22T04:25:44.769Z,1.74
2022-11-22T04:28:14.419Z,1.69
2022-11-22T04:31:01.603Z,1.78
2022-11-22T04:33:30.405Z,1.71
2022-11-22T04:35:58.298Z,1.70
2022-11-22T04:38:26.258Z,1.85
2022-11-22T04:40:54.427Z,1.81
2022-11-22T04:43:42.504Z,1.81
2022-11-22T04:46:11.010Z,1.82
2022-11-22T04:48:39.200Z,1.81
2022-11-22T04:51:26.740Z,1.87
2022-11-22T04:53:54.577Z,1.95
2022-11-22T04:56:23.272Z,1.86
2022-11-22T04:58:55.951Z,1.74
2022-11-22T05:01:24.476Z,1.86
2022-11-22T05:03:52.521Z,1.79
2022-11-22T05:06:21.076Z,1.90
2022-11-22T05:08:50.158Z,2.03
2022-11-22T05:11:18.512Z,2.08
2022-11-22T05:13:46.431Z,2.06
2022-11-22T05:16:15.645Z,1.90
2022-11-22T05:18:43.890Z,1.82
2022-11-22T05:21:14.048Z,1.87
2022-11-22T05:23:57.176Z,1.68
2022-11-22T05:26:35.863Z,1.72
2022-11-22T05:29:08.046Z,1.75
2022-11-22T05:31:38.329Z,1.83
2022-11-22T05:34:07.082Z,1.83
2022-11-22T05:36:35.551Z,1.85
2022-11-22T05:39:07.443Z,1.88
2022-11-22T05:41:36.674Z,1.72
2022-11-22T05:44:05.565Z,1.76
2022-11-22T05:46:34.358Z,1.54
2022-11-22T05:49:02.760Z,1.59
2022-11-22T05:51:34.731Z,1.63
2022-11-22T05:54:04.108Z,1.69
2022-11-22T05:56:32.588Z,1.69
2022-11-22T05:59:00.956Z,1.65
2022-11-22T06:01:29.039Z,1.76
2022-11-22T06:03:58.017Z,1.84
2022-11-22T06:06:28.604Z,1.85
2022-11-22T06:08:59.189Z,1.72
2022-11-22T06:11:28.046Z,1.70
2022-11-22T06:13:59.665Z,1.67
2022-11-22T06:16:27.767Z,1.73
2022-11-22T06:18:56.790Z,1.77
2022-11-22T06:21:26.063Z,1.77
2022-11-22T06:23:55.135Z,1.83
2022-11-22T06:26:24.537Z,1.83
2022-11-22T06:28:54.514Z,1.83
2022-11-22T06:31:28.146Z,1.64
2022-11-22T06:33:59.708Z,1.60
2022-11-22T06:36:30.348Z,1.57
2022-11-22T06:38:58.818Z,1.64
2022-11-22T06:41:31.766Z,1.70
2022-11-22T06:43:59.788Z,1.58
2022-11-22T06:46:28.013Z,1.71
2022-11-22T06:48:56.213Z,1.77
2022-11-22T06:51:26.442Z,1.76
2022-11-22T06:53:58.219Z,1.69
2022-11-22T06:56:31.956Z,1.80
2022-11-22T06:59:04.038Z,1.82
2022-11-22T07:01:33.467Z,1.82
2022-11-22T07:04:02.158Z,1.98
2022-11-22T07:06:33.093Z,2.13
2022-11-22T07:09:02.540Z,1.89
2022-11-22T07:11:31.891Z,1.76
2022-11-22T07:14:06.866Z,1.69
2022-11-22T07:16:37.901Z,1.64
2022-11-22T07:19:06.737Z,1.63
2022-11-22T07:21:37.236Z,1.67
2022-11-22T07:24:07.159Z,1.62
2022-11-22T07:26:35.360Z,1.67
2022-11-22T07:29:04.240Z,1.70
2022-11-22T07:31:32.243Z,1.76
2022-11-22T07:34:00.262Z,1.76
2022-11-22T07:36:30.401Z,1.87
2022-11-22T07:38:58.590Z,1.89
2022-11-22T07:41:26.508Z,1.71
2022-11-22T07:43:54.720Z,1.60
2022-11-22T07:46:29.406Z,1.78
2022-11-22T07:48:58.402Z,1.79
2022-11-22T07:51:26.411Z,1.94
2022-11-22T07:53:56.007Z,2.03
2022-11-22T07:56:24.275Z,1.99
2022-11-22T07:58:52.349Z,2.07
2022-11-22T08:01:21.018Z,2.19
2022-11-22T08:03:49.359Z,2.17
2022-11-22T08:06:17.663Z,2.28
2022-11-22T08:08:47.648Z,2.42
2022-11-22T08:11:15.717Z,2.44
2022-11-22T08:13:44.742Z,2.49
2022-11-22T08:16:14.822Z,2.51
2022-11-22T08:18:47.735Z,2.43
2022-11-22T08:21:17.440Z,2.58
2022-11-22T08:23:46.477Z,2.52
2022-11-22T08:26:16.792Z,2.68
2022-11-22T08:28:45.630Z,2.62
2022-11-22T08:31:16.411Z,2.46
2022-11-22T08:33:44.437Z,2.52
2022-11-22T08:36:12.563Z,2.57
2022-11-22T08:38:41.821Z,2.69
2022-11-22T08:41:11.080Z,2.51
2022-11-22T08:43:39.355Z,2.52
2022-11-22T08:46:07.667Z,2.49
2022-11-22T08:48:37.192Z,2.48
2022-11-22T08:51:08.191Z,2.65
2022-11-22T08:53:38.957Z,2.50
2022-11-22T08:56:09.863Z,2.37
2022-11-22T08:58:38.526Z,2.40
2022-11-22T09:01:16.973Z,2.70
2022-11-22T09:03:45.451Z,2.89
2022-11-22T09:09:30.476Z,2.93
2022-11-22T09:11:55.233Z,2.92
2022-11-22T09:14:23.748Z,2.92
2022-11-22T09:16:52.534Z,3.02
2022-11-22T09:19:21.260Z,3.01
2022-11-22T09:21:50.358Z,3.02
2022-11-22T09:24:18.779Z,3.00
2022-11-22T09:26:46.720Z,2.85
2022-11-22T09:29:15.924Z,2.89
2022-11-22T09:31:44.497Z,3.00
2022-11-22T09:34:12.936Z,2.89
2022-11-22T09:36:41.228Z,3.02
2022-11-22T09:39:09.738Z,3.28
2022-11-22T09:41:43.968Z,3.39
2022-11-22T09:44:27.177Z,3.46
2022-11-22T09:46:58.924Z,3.27
2022-11-22T09:49:43.571Z,3.16
2022-11-22T09:52:28.691Z,3.09
2022-11-22T09:55:04.151Z,3.30
2022-11-22T09:57:40.698Z,3.26
2022-11-22T10:00:25.259Z,2.97
2022-11-22T10:03:27.081Z,3.00
2022-11-22T10:06:03.172Z,3.12
2022-11-22T10:08:41.730Z,3.01
2022-11-22T10:11:33.505Z,2.95
2022-11-22T10:14:44.986Z,2.92
2022-11-22T10:17:41.994Z,2.98
2022-11-22T10:20:23.422Z,3.16
2022-11-22T10:22:52.463Z,3.30
2022-11-22T10:25:40.224Z,3.39
2022-11-22T10:28:17.884Z,3.32
2022-11-22T10:30:57.773Z,3.48
2022-11-22T10:33:41.309Z,3.38
2022-11-22T10:36:32.409Z,3.24
2022-11-22T10:39:19.753Z,3.31
2022-11-22T10:42:25.885Z,3.41
2022-11-22T10:45:11.697Z,3.59
2022-11-22T10:48:04.630Z,3.65
2022-11-22T10:50:53.457Z,3.65
2022-11-22T10:53:43.140Z,3.77
2022-11-22T10:56:37.299Z,3.60
2022-11-22T10:59:32.997Z,3.61
2022-11-22T11:02:51.221Z,3.57
2022-11-22T11:05:37.323Z,3.51
2022-11-22T11:08:37.110Z,3.69
2022-11-22T11:11:00.133Z,3.81
2022-11-22T11:13:34.146Z,3.71
2022-11-22T11:16:08.016Z,3.86
2022-11-22T11:18:46.386Z,3.81
2022-11-22T11:21:15.099Z,3.96
2022-11-22T11:23:43.412Z,3.96
2022-11-22T11:26:26.238Z,4.05
2022-11-22T11:29:16.781Z,4.11
2022-11-22T11:32:10.350Z,4.07
2022-11-22T11:34:41.899Z,4.02
2022-11-22T11:37:21.206Z,4.19
2022-11-22T11:39:49.204Z,4.27
2022-11-22T11:42:29.180Z,4.25
2022-11-22T11:45:19.115Z,4.06
2022-11-22T11:47:47.340Z,4.12
2022-11-22T11:50:30.230Z,4.06
2022-11-22T11:53:07.412Z,4.11
2022-11-22T11:55:36.965Z,4.03
2022-11-22T11:58:20.862Z,4.02
2022-11-22T12:00:48.784Z,4.15
2022-11-22T12:03:19.785Z,4.21
2022-11-22T12:05:48.115Z,4.35
2022-11-22T12:08:30.064Z,4.34
2022-11-22T12:11:05.621Z,4.34
2022-11-22T12:14:04.532Z,4.38
2022-11-22T12:16:31.973Z,4.34
2022-11-22T12:19:06.657Z,4.35
2022-11-22T12:21:43.489Z,4.33
2022-11-22T12:24:45.243Z,4.37
2022-11-22T12:27:10.509Z,4.39
2022-11-22T12:29:40.911Z,4.33
2022-11-22T12:32:19.116Z,4.43
2022-11-22T12:34:57.146Z,4.73
2022-11-22T12:37:34.724Z,5.16
2022-11-22T12:40:12.953Z,5.23
2022-11-22T12:42:49.901Z,5.24
2022-11-22T12:45:32.898Z,5.10
2022-11-22T12:48:06.584Z,5.18
2022-11-22T12:50:43.365Z,5.31
2022-11-22T12:53:36.760Z,5.27
2022-11-22T12:56:18.047Z,5.19
2022-11-22T12:58:46.659Z,5.03
2022-11-22T13:01:27.107Z,5.11
2022-11-22T13:04:22.125Z,4.61
2022-11-22T13:07:12.187Z,4.63
2022-11-22T13:09:47.155Z,4.86
2022-11-22T13:12:21.516Z,4.75
2022-11-22T13:14:56.409Z,4.89
2022-11-22T13:17:27.331Z,4.96
2022-11-22T13:19:59.630Z,5.03
2022-11-22T13:23:05.281Z,5.14
2022-11-22T13:25:50.507Z,5.11
2022-11-22T13:28:23.105Z,5.07
2022-11-22T13:31:11.332Z,5.15
2022-11-22T13:33:43.699Z,5.12
2022-11-22T13:36:37.214Z,5.04
2022-11-22T13:39:19.642Z,4.99
2022-11-22T13:42:00.140Z,4.82
2022-11-22T13:44:36.405Z,4.84
2022-11-22T13:47:25.662Z,4.91
2022-11-22T13:49:54.329Z,4.88
2022-11-22T13:52:22.650Z,4.84
2022-11-22T13:54:52.763Z,4.81
2022-11-22T13:57:40.814Z,4.74
2022-11-22T14:00:12.295Z,4.72
2022-11-22T14:02:42.285Z,4.77
2022-11-22T14:05:19.046Z,4.63
2022-11-22T14:07:52.627Z,4.48
2022-11-22T14:10:42.503Z,4.39
2022-11-22T14:13:39.125Z,4.45
2022-11-22T14:16:26.246Z,4.39
2022-11-22T14:19:19.409Z,4.40
2022-11-22T14:21:58.202Z,4.26
2022-11-22T14:24:45.459Z,4.20
2022-11-22T14:27:30.425Z,4.31
2022-11-22T14:30:21.050Z,4.30
2022-11-22T14:32:54.659Z,4.32
2022-11-22T14:35:37.969Z,4.37
2022-11-22T14:38:09.322Z,4.42
2022-11-22T14:40:41.585Z,4.42
2022-11-22T14:43:30.026Z,4.47
2022-11-22T14:46:37.334Z,4.61
2022-11-22T14:49:32.022Z,4.57
2022-11-22T14:52:00.539Z,4.51
2022-11-22T14:54:43.458Z,4.50
2022-11-22T14:57:17.779Z,4.44
2022-11-22T15:00:18.265Z,4.54
2022-11-22T15:03:04.611Z,4.41
2022-11-22T15:09:20.353Z,4.49
2022-11-22T15:09:52.962Z,4.50
2022-11-22T15:12:48.614Z,4.53
2022-11-22T15:57:37.801Z,4.58
2022-11-22T16:00:18.971Z,4.46
2022-11-22T16:02:53.863Z,4.51
2022-11-22T16:06:06.251Z,4.58
2022-11-22T16:08:36.033Z,4.45
2022-11-22T16:11:04.411Z,4.41
2022-11-22T16:13:36.092Z,4.41
2022-11-22T16:16:11.018Z,4.44
2022-11-22T16:18:41.344Z,4.58
2022-11-22T16:21:12.764Z,4.58
2022-11-22T16:23:42.809Z,4.59
2022-11-22T16:26:19.013Z,4.58
2022-11-22T16:28:49.355Z,4.50
2022-11-22T16:31:30.205Z,4.40
2022-11-22T16:33:59.001Z,4.36
2022-11-22T16:36:29.804Z,4.45
2022-11-22T16:38:58.752Z,4.48
2022-11-22T16:41:29.385Z,4.52
2022-11-22T16:44:02.942Z,4.47
2022-11-22T16:46:31.071Z,4.52
2022-11-22T16:48:59.918Z,4.48
2022-11-22T16:51:29.403Z,4.47
2022-11-22T16:54:00.047Z,4.41
2022-11-22T16:56:30.192Z,4.38
2022-11-22T16:58:58.817Z,4.46
2022-11-22T17:01:32.734Z,4.44
2022-11-22T17:04:03.418Z,4.51
2022-11-22T17:06:32.919Z,4.50
2022-11-22T17:09:02.784Z,4.61
2022-11-22T17:11:32.923Z,4.60
2022-11-22T17:14:01.705Z,4.57
2022-11-22T17:16:32.821Z,4.64
2022-11-22T17:19:01.274Z,4.54
2022-11-22T17:21:38.083Z,4.55
2022-11-22T17:24:20.804Z,4.47
2022-11-22T17:26:49.171Z,4.47
2022-11-22T17:32:06.074Z,4.36
2022-11-22T17:34:35.853Z,4.46
2022-11-22T17:37:04.177Z,4.52
2022-11-22T17:39:32.582Z,4.52
2022-11-22T17:42:00.668Z,4.59
2022-11-22T17:44:28.778Z,4.55
2022-11-22T17:46:56.789Z,4.63
2022-11-22T17:49:25.227Z,4.75
2022-11-22T17:51:53.248Z,4.74
2022-11-22T17:54:21.360Z,4.65
2022-11-22T17:56:50.071Z,4.62
2022-11-22T17:59:18.496Z,4.64
2022-11-22T18:01:47.403Z,4.64
2022-11-22T18:04:17.655Z,4.68
2022-11-22T18:06:45.743Z,4.69
2022-11-22T18:09:13.863Z,4.65
2022-11-22T18:11:42.167Z,4.69
2022-11-22T18:14:11.444Z,4.81
2022-11-22T18:16:41.331Z,4.74
2022-11-22T18:19:13.950Z,4.67
2022-11-22T18:21:44.676Z,4.64
2022-11-22T18:24:13.521Z,4.68
2022-11-22T18:26:42.284Z,4.68
2022-11-22T18:32:01.953Z,4.80
2022-11-22T18:34:31.024Z,4.76
2022-11-22T18:37:02.921Z,4.64
2022-11-22T18:39:40.723Z,4.59
2022-11-22T18:42:14.954Z,4.56
2022-11-22T18:44:43.267Z,4.65
2022-11-22T18:47:12.615Z,4.65
2022-11-22T18:49:41.566Z,4.63
2022-11-22T18:52:13.390Z,4.69
2022-11-22T18:54:45.460Z,4.84
2022-11-22T18:57:13.961Z,4.78
2022-11-22T18:59:42.234Z,4.86
2022-11-22T19:02:10.643Z,4.86
2022-11-22T19:04:39.121Z,4.91
2022-11-22T19:07:07.735Z,4.85
2022-11-22T19:09:36.582Z,4.93
2022-11-22T19:12:06.533Z,4.73
2022-11-22T19:14:35.024Z,4.73
2022-11-22T19:17:04.708Z,4.73
2022-11-22T19:19:34.561Z,4.75
2022-11-22T19:22:03.317Z,4.73
2022-11-22T19:24:32.860Z,4.66
2022-11-22T19:27:01.904Z,4.70
2022-11-22T19:29:33.223Z,4.72
2022-11-22T19:32:05.320Z,4.82
2022-11-22T19:34:33.968Z,4.77
2022-11-22T19:37:03.902Z,4.73
2022-11-22T19:39:35.446Z,4.77
2022-11-22T19:42:04.070Z,4.75
2022-11-22T19:44:38.159Z,4.78
2022-11-22T19:47:12.296Z,4.77
2022-11-22T19:49:40.680Z,4.77
2022-11-22T19:52:10.363Z,4.84
2022-11-22T19:54:38.762Z,4.71
2022-11-22T19:57:08.871Z,4.65
2022-11-22T19:59:37.614Z,4.57
2022-11-22T20:02:06.186Z,4.61
2022-11-22T20:04:49.882Z,4.66
2022-11-22T20:07:19.063Z,4.61
2022-11-22T20:09:50.231Z,4.51
2022-11-22T20:12:19.548Z,4.64
2022-11-22T20:14:47.653Z,4.65
2022-11-22T20:17:16.705Z,4.53
2022-11-22T20:19:45.303Z,4.54
2022-11-22T20:22:13.516Z,4.54
2022-11-22T20:24:41.756Z,4.66
2022-11-22T20:27:11.664Z,4.66
2022-11-22T20:29:41.616Z,4.73
2022-11-22T20:32:09.896Z,4.73
2022-11-22T20:34:38.481Z,4.80
2022-11-22T20:37:07.369Z,4.83
2022-11-22T20:39:37.382Z,4.66
2022-11-22T20:42:32.461Z,4.77
2022-11-22T20:44:53.381Z,4.73
2022-11-22T20:47:21.878Z,4.63
2022-11-22T20:49:50.194Z,4.74
2022-11-22T20:52:18.254Z,4.71
2022-11-22T20:54:48.098Z,4.70
2022-11-22T20:57:16.446Z,4.75
2022-11-22T20:59:48.232Z,4.63
2022-11-22T21:02:16.471Z,4.55
2022-11-22T21:04:45.734Z,4.61
2022-11-22T21:07:13.953Z,4.68
2022-11-22T21:09:42.130Z,4.74
2022-11-22T21:12:11.611Z,4.61
2022-11-22T21:14:40.055Z,4.68
2022-11-22T21:17:37.235Z,4.74
2022-11-22T21:19:56.244Z,4.62
2022-11-22T21:22:30.191Z,4.69
2022-11-22T21:25:00.207Z,4.71
2022-11-22T21:27:28.472Z,4.71
2022-11-22T21:29:57.269Z,4.74
2022-11-22T21:32:26.448Z,4.85
2022-11-22T21:35:00.922Z,4.88
2022-11-22T21:37:28.908Z,4.92
2022-11-22T21:39:57.007Z,5.10
2022-11-22T21:42:25.382Z,5.21
2022-11-22T21:44:53.532Z,5.18
2022-11-22T21:47:23.530Z,5.20
2022-11-22T21:49:52.055Z,5.12
2022-11-22T21:52:20.587Z,5.02
2022-11-22T21:54:48.861Z,5.03
2022-11-22T21:57:16.980Z,4.97
2022-11-22T21:59:45.440Z,5.05
2022-11-22T22:02:13.560Z,5.10
2022-11-22T22:04:41.439Z,5.13
2022-11-22T22:07:29.724Z,5.24
2022-11-22T22:09:59.003Z,5.30
2022-11-22T22:12:27.146Z,5.18
2022-11-22T22:14:55.421Z,5.12
2022-11-22T22:17:23.481Z,5.13
2022-11-22T22:19:52.485Z,5.12
2022-11-22T22:22:20.665Z,5.15
2022-11-22T22:24:48.614Z,5.26
2022-11-22T22:27:16.921Z,5.42
2022-11-22T22:29:45.705Z,5.36
2022-11-22T22:32:14.372Z,5.41
2022-11-22T22:34:43.547Z,5.47
2022-11-22T22:37:11.727Z,5.49
2022-11-22T22:39:39.558Z,5.67
2022-11-22T22:42:07.542Z,5.61
2022-11-22T22:44:35.539Z,5.61
2022-11-22T22:47:03.649Z,5.61
2022-11-22T22:49:31.701Z,5.64
2022-11-22T22:51:59.651Z,5.65
2022-11-22T22:54:27.686Z,5.58
2022-11-22T22:56:55.665Z,5.59
2022-11-22T22:59:23.655Z,5.59
2022-11-22T23:01:51.804Z,5.58
2022-11-22T23:04:19.858Z,5.48
2022-11-22T23:06:48.026Z,5.53
2022-11-22T23:09:16.405Z,5.66
2022-11-22T23:12:03.068Z,5.73
2022-11-22T23:14:30.905Z,5.64
2022-11-22T23:16:58.738Z,5.58
2022-11-22T23:19:27.555Z,5.41
2022-11-22T23:21:55.641Z,5.42
2022-11-22T23:24:23.787Z,5.54
2022-11-22T23:26:51.997Z,5.49
2022-11-22T23:29:20.112Z,5.42
2022-11-22T23:31:48.105Z,5.42
2022-11-22T23:34:16.733Z,5.32
2022-11-22T23:36:44.814Z,5.34
2022-11-22T23:39:12.954Z,5.44
2022-11-22T23:41:41.441Z,5.49
2022-11-22T23:44:10.114Z,5.45
2022-11-22T23:46:38.324Z,5.46
2022-11-22T23:49:07.038Z,5.48
2022-11-22T23:51:35.772Z,5.42
2022-11-22T23:54:05.741Z,5.40
2022-11-22T23:56:35.715Z,5.35
2022-11-22T23:59:05.646Z,5.39
